This is the latest recevied weather packets stored in our database for station/object KA1STV. If no packets are shown the sender has not sent any weather packets the latest 1 day(s).
| Time | Temp. | Humidity | Pressure | Rain* | Wind** | Luminosity | Snow |
|---|---|---|---|---|---|---|---|
| 1777995072 | 22.22° C | 59% | 1008.1 hPa | 0 mm | 0.45 m/s, 324° | 703 W/m² | - |
| 1777994773 | 22.22° C | 60% | 1008.1 hPa | 0 mm | 1.34 m/s, 179° | 755 W/m² | - |
| 1777994464 | 22.78° C | 59% | 1008 hPa | 0 mm | 0.89 m/s, 72° | 764 W/m² | - |
| 1777994160 | 23.33° C | 56% | 1008 hPa | 0 mm | 0.89 m/s, 12° | 697 W/m² | - |
| 1777993858 | 22.78° C | 57% | 1008.2 hPa | 0 mm | 0 m/s | 680 W/m² | - |
| 1777993553 | 22.78° C | 56% | 1008.2 hPa | 0 mm | 1.79 m/s, 178° | 699 W/m² | - |
| 1777993250 | 22.22° C | 57% | 1008.2 hPa | 0 mm | 1.34 m/s, 258° | 713 W/m² | - |
| 1777992946 | 22.78° C | 55% | 1008.3 hPa | 0 mm | 1.34 m/s, 188° | 687 W/m² | - |
| 1777992644 | 21.67° C | 57% | 1008.4 hPa | 0 mm | 0.45 m/s, 84° | 674 W/m² | - |
| 1777992342 | 22.22° C | 57% | 1008.4 hPa | 0 mm | 0.89 m/s, 239° | 726 W/m² | - |
| 1777992039 | 22.22° C | 58% | 1008.6 hPa | 0 mm | 0.45 m/s, 32° | 792 W/m² | - |
| 1777991737 | 21.11° C | 60% | 1008.4 hPa | 0 mm | 0.89 m/s, 219° | 750 W/m² | - |
| 1777991434 | 20° C | 63% | 1008.3 hPa | 0 mm | 0 m/s | 688 W/m² | - |
| 1777991131 | 19.44° C | 64% | 1008.7 hPa | 0 mm | 1.34 m/s, 247° | 531 W/m² | - |
| 1777990828 | 18.89° C | 66% | 1008.6 hPa | 0 mm | 0.45 m/s, 83° | 741 W/m² | - |
| 1777990526 | 18.89° C | 65% | 1008.7 hPa | 0 mm | 0 m/s | 406 W/m² | - |
| 1777990222 | 17.78° C | 67% | 1008.9 hPa | 0 mm | 0.89 m/s, 120° | 299 W/m² | - |
| 1777989919 | 17.78° C | 69% | 1008.9 hPa | 0 mm | 0 m/s | 223 W/m² | - |
| 1777989616 | 17.22° C | 73% | 1008.9 hPa | 0 mm | 0 m/s | 356 W/m² | - |
| 1777989312 | 17.22° C | 71% | 1009.1 hPa | 0 mm | 0 m/s | 321 W/m² | - |
| 1777989009 | 17.22° C | 70% | 1008.9 hPa | 0 mm | 0 m/s | 252 W/m² | - |
| 1777988705 | 16.67° C | 72% | 1008.9 hPa | 0 mm | 0.45 m/s, 177° | 637 W/m² | - |
| 1777988402 | 16.67° C | 72% | 1009.1 hPa | 0 mm | 0.45 m/s, 34° | 134 W/m² | - |
| 1777988099 | 16.11° C | 73% | 1009 hPa | 0 mm | 0.89 m/s, 64° | 508 W/m² | - |
| 1777987794 | 16.67° C | 73% | 1009.1 hPa | 0 mm | 0.45 m/s, 27° | 107 W/m² | - |
* Rain latest hour (hover to see other rain measurements)
** Current wind speed in m/s (hover to see current wind gust speed)